松山國際航空站 - ATIS

METAR RCSS 201500Z 09008KT 9999 FEW025 21/17 Q1020 NOSIG RMK A3012=

站台狀態:Online
最後更新:2018-10-20 23:15:02